Latest METARs, TAFs and NOTAMs for SEGU


---------------------------------------------------------------------------
	(OBSERVATIONS)
SEGU 212300Z 25011KT 9999 VCSH FEW010 BKN023 BKN100 29/24 Q1007
    NOSIG RMK A2975=
SEGU 212200Z 06005KT 030V090 9999 VCSH SCT023 SCT100 31/24 Q1006
    NOSIG RMK A2971=
---------------------------------------------------------------------------
	(TERMINAL AREA FORECAST)
SEGU 212235Z 2200/2224 24006KT 9999 FEW010 BKN020 BKN100
    TEMPO 2200/2202 8000 SHRA
    FM220400 23006KT 4000 RA FEW010 BKN016 OVC100
    FM221100 05005KT 9999 BKN020 BKN100 TX32/2219Z TN25/2210Z=
---------------------------------------------------------------------------
	(NOTAMS)


SEGU A0055/09 APN NORTE CLSD POR INCIDENTE DE ACFT 27 JAN 05:30
    UNTIL 27 JAN 18:00 ESTIMATED

SEGU A0100/19 LAUNCH OF BALLOONS WITH PROBE WILL TAKE PLACE FM
    STN GUAYAQUIL COORD 021618S 0795414W VSP 10 - 13FT/SEC HGT
    OF PROBING 83000FT. CTN. SFC - UNL, MON, WED AND FRI 1015-1215,
    17 JAN 20:23 2019 UNTIL 17 APR 18:00 2019 ESTIMATED. CREATED:
    17 JAN 20:26 2019

SEGU A0364/19 IN GREEN AREAS MOV AREA WIP, SUBJ TFC. CTN. 22
    FEB 05:01 2019 UNTIL 22 MAY 04:59 2019. CREATED: 19 FEB 15:27
    2019

SEGU A0365/19 IN MOV AREA WIP SUBJ TFC. CTN. 22 FEB 05:01 2019
    UNTIL 22 MAY 04:59 2019. CREATED: 19 FEB 15:32 2019

SEGU A0536/19 TWY F CLSD DUE TO MAINT. 11 MAR 19:40 2019 UNTIL
    11 APR 23:59 2019. CREATED: 11 MAR 19:42 2019

SEGU A0597/19 RWY CLSD DUE TO MAINT. AUTH OPS HEL, HR: 1906080500
    TIL 1906101300 1906150500 TIL 1906171300 1906220500 TIL 1906241300
    1906290500 TIL 1907011300. 08 JUN 05:00 2019 UNTIL 01 JUL
    13:00 2019. CREATED: 21 MAR 13:22 2019

SEGU A1463/06 COMBUSTIBLE JET A-1 RESTRINGIDO 20 POR CIENTO 26
    DEC 20:45 2006 UNTIL 04 JAN 23:00 ESTIMATED

---------------------------------------------------------------------------